Time;durP1;ratioP1;P1;durP2;ratioP2;P2;SDS_P1;SDS_P2;PMS_P1;PMS_P2;Temp;Humidity;BMP_temperature;BMP_pressure;BME280_temperature;BME280_humidity;BME280_pressure;Samples;Min_cycle;Max_cycle;Signal;HPM_P1;HPM_P2
2022/03/26 00:01:50;;;;;;;1.10;1.10;;;10.10;58.40;;;;;;5041861;28;20546;-76
2022/03/26 00:04:16;;;;;;;0.10;0.10;;;10.10;58.50;;;;;;5042699;28;20094;-73
2022/03/26 00:06:42;;;;;;;1.58;1.48;;;10.20;58.70;;;;;;5037035;28;20060;-73
2022/03/26 00:09:07;;;;;;;1.45;1.40;;;10.10;57.60;;;;;;5047947;28;20470;-73
2022/03/26 00:11:33;;;;;;;1.95;1.85;;;10.10;57.10;;;;;;5041434;28;20056;-74
2022/03/26 00:13:59;;;;;;;0.10;0.10;;;10.20;57.60;;;;;;5043436;28;20052;-75
2022/03/26 00:16:25;;;;;;;0.43;0.43;;;10.10;58.20;;;;;;5045060;28;20082;-73
2022/03/26 00:18:50;;;;;;;0.63;0.63;;;10.10;58.70;;;;;;5046639;28;20037;-73
2022/03/26 00:21:16;;;;;;;0.35;0.35;;;10.00;59.00;;;;;;5043534;28;20028;-72
2022/03/26 00:23:41;;;;;;;1.77;1.67;;;10.10;58.80;;;;;;5043362;28;20575;-72
2022/03/26 00:26:10;;;;;;;1.50;1.45;;;10.00;59.60;;;;;;5042390;28;20100;-73
2022/03/26 00:28:37;;;;;;;0.68;0.65;;;9.90;61.10;;;;;;5040066;28;20124;-73
2022/03/26 00:31:06;;;;;;;0.10;0.10;;;9.70;62.00;;;;;;5044370;28;20079;-74
2022/03/26 00:33:32;;;;;;;0.40;0.40;;;9.70;62.80;;;;;;5047560;28;20490;-74
2022/03/26 00:35:58;;;;;;;0.10;0.10;;;9.60;63.10;;;;;;5044723;28;20036;-73
2022/03/26 00:38:24;;;;;;;1.45;1.35;;;9.60;63.80;;;;;;5045087;28;20025;-74
2022/03/26 00:40:49;;;;;;;0.32;0.32;;;9.60;64.30;;;;;;5045054;28;20537;-74
2022/03/26 00:43:15;;;;;;;1.38;1.33;;;9.60;64.70;;;;;;5046252;28;20040;-72
2022/03/26 00:45:42;;;;;;;0.50;0.50;;;9.60;65.00;;;;;;5042033;28;20028;-73
2022/03/26 00:48:08;;;;;;;6.93;5.15;;;9.60;65.40;;;;;;5046411;28;20020;-74
2022/03/26 00:50:34;;;;;;;1.38;1.38;;;9.60;65.70;;;;;;5046206;28;20474;-73
2022/03/26 00:52:59;;;;;;;0.52;0.52;;;9.70;66.40;;;;;;5046488;28;20930;-73
2022/03/26 00:55:25;;;;;;;1.40;1.40;;;9.40;67.30;;;;;;5042707;28;20033;-72
2022/03/26 00:57:51;;;;;;;0.10;0.10;;;9.40;68.50;;;;;;5046011;28;20164;-74
2022/03/26 01:00:17;;;;;;;5.47;5.03;;;9.30;69.90;;;;;;5045559;28;20402;-73
2022/03/26 01:02:43;;;;;;;2.25;2.10;;;9.30;70.30;;;;;;5043629;28;20033;-73
2022/03/26 01:05:10;;;;;;;5.32;2.83;;;9.30;71.50;;;;;;5042603;28;20037;-74
2022/03/26 01:07:36;;;;;;;0.20;0.20;;;9.20;72.30;;;;;;5044649;28;20118;-73
2022/03/26 01:10:04;;;;;;;3.03;2.78;;;9.20;73.60;;;;;;5046454;28;20060;-72
2022/03/26 01:12:30;;;;;;;0.15;0.15;;;9.10;74.90;;;;;;5043659;28;20029;-73
2022/03/26 01:14:56;;;;;;;0.10;0.10;;;9.20;75.50;;;;;;5042829;28;20384;-74
2022/03/26 01:17:22;;;;;;;3.85;3.58;;;9.10;76.00;;;;;;5045152;28;20109;-73
2022/03/26 01:19:48;;;;;;;0.73;0.73;;;9.10;76.70;;;;;;5045524;28;20024;-73
2022/03/26 01:22:13;;;;;;;0.20;0.20;;;9.10;77.20;;;;;;5042665;28;20052;-74
2022/03/26 01:24:39;;;;;;;2.05;1.95;;;9.10;77.10;;;;;;5036932;28;20037;-73
2022/03/26 01:27:06;;;;;;;0.43;0.43;;;9.00;77.40;;;;;;5043694;28;20032;-74
2022/03/26 01:29:33;;;;;;;0.95;0.95;;;9.00;78.00;;;;;;5045700;28;20514;-72
2022/03/26 01:31:59;;;;;;;0.35;0.35;;;9.10;79.00;;;;;;5040391;28;20044;-74
2022/03/26 01:34:26;;;;;;;1.20;1.17;;;9.10;79.60;;;;;;5037217;28;20021;-74
2022/03/26 01:36:53;;;;;;;0.52;0.52;;;9.00;80.40;;;;;;5040805;28;20024;-74
2022/03/26 01:39:22;;;;;;;6.65;6.05;;;9.00;80.60;;;;;;5044713;28;20029;-73
2022/03/26 01:41:47;;;;;;;0.10;0.10;;;9.00;81.40;;;;;;5042190;28;20036;-74
2022/03/26 01:44:14;;;;;;;0.38;0.38;;;9.00;82.50;;;;;;5045509;28;20028;-73
2022/03/26 01:46:53;;;;;;;0.10;0.10;;;8.40;82.70;;;;;;5040323;28;20053;-74
2022/03/26 01:49:20;;;;;;;0.10;0.10;;;9.00;84.20;;;;;;5038387;28;20037;-73
2022/03/26 01:51:47;;;;;;;0.20;0.20;;;8.90;85.00;;;;;;5045905;28;20044;-73
2022/03/26 01:54:14;;;;;;;0.20;0.20;;;8.90;86.40;;;;;;5040888;28;20091;-74
2022/03/26 01:56:40;;;;;;;1.30;1.30;;;8.80;86.30;;;;;;5043487;28;20095;-74
2022/03/26 01:59:07;;;;;;;0.93;0.93;;;10.00;87.50;;;;;;5048297;28;21295;-74
2022/03/26 02:01:34;;;;;;;0.57;0.57;;;8.70;89.70;;;;;;5046594;28;20032;-73
2022/03/26 02:04:04;;;;;;;0.10;0.10;;;8.70;90.40;;;;;;5044578;28;20383;-73
2022/03/26 02:06:36;;;;;;;1.23;1.23;;;8.70;91.30;;;;;;5039877;28;20082;-73
2022/03/26 02:09:10;;;;;;;0.10;0.10;;;8.70;91.40;;;;;;5038937;28;20025;-74
2022/03/26 02:11:38;;;;;;;0.85;0.82;;;8.50;91.70;;;;;;5043504;28;20029;-74
2022/03/26 02:14:04;;;;;;;0.20;0.20;;;8.70;92.30;;;;;;5042567;28;20052;-74
2022/03/26 02:16:32;;;;;;;0.50;0.50;;;8.70;92.00;;;;;;5040889;28;20025;-74
2022/03/26 02:18:58;;;;;;;0.45;0.45;;;8.50;93.10;;;;;;5047429;28;20044;-73
2022/03/26 02:21:24;;;;;;;0.13;0.13;;;8.50;94.20;;;;;;5041102;28;20013;-73
2022/03/26 02:23:51;;;;;;;0.10;0.10;;;8.50;95.20;;;;;;5041741;28;20544;-74
2022/03/26 02:26:22;;;;;;;0.52;0.52;;;8.40;96.00;;;;;;5039527;28;20025;-74
2022/03/26 02:28:49;;;;;;;3.67;2.75;;;8.40;96.30;;;;;;5048478;28;20039;-73
2022/03/26 02:31:16;;;;;;;4.22;4.00;;;8.40;96.30;;;;;;5045420;28;20049;-74
2022/03/26 02:33:42;;;;;;;2.15;1.75;;;8.40;96.80;;;;;;5043708;28;20029;-74
2022/03/26 02:36:09;;;;;;;0.50;0.50;;;8.30;97.10;;;;;;5043515;28;20068;-74
2022/03/26 02:38:36;;;;;;;1.02;0.85;;;8.40;97.40;;;;;;5046005;28;20479;-74
2022/03/26 02:41:02;;;;;;;0.10;0.10;;;8.40;97.60;;;;;;5042125;28;20025;-73
2022/03/26 02:43:28;;;;;;;2.08;1.95;;;8.40;97.70;;;;;;5049567;28;20064;-73
2022/03/26 02:45:54;;;;;;;0.10;0.10;;;8.30;97.90;;;;;;5035865;28;20061;-75
2022/03/26 02:48:20;;;;;;;1.85;1.75;;;8.30;97.90;;;;;;5041306;28;20052;-73
2022/03/26 02:50:46;;;;;;;0.10;0.10;;;8.30;98.30;;;;;;5041483;28;20518;-74
2022/03/26 02:53:12;;;;;;;0.10;0.10;;;8.20;98.90;;;;;;5045747;28;20087;-75
2022/03/26 02:55:38;;;;;;;0.10;0.10;;;8.20;99.30;;;;;;5045154;28;20036;-73
2022/03/26 02:58:07;;;;;;;2.05;1.95;;;8.20;99.70;;;;;;5040400;28;20127;-73
2022/03/26 03:00:33;;;;;;;0.20;0.20;;;8.10;99.90;;;;;;5041672;28;20035;-74
2022/03/26 03:02:59;;;;;;;3.75;3.42;;;8.10;99.90;;;;;;5058163;28;20039;-73
2022/03/26 03:05:25;;;;;;;0.10;0.10;;;8.10;99.90;;;;;;5043983;28;20036;-74
2022/03/26 03:07:51;;;;;;;0.30;0.30;;;8.00;99.90;;;;;;5044355;28;20474;-74
2022/03/26 03:10:17;;;;;;;2.42;2.33;;;8.00;99.90;;;;;;5043161;28;20041;-74
2022/03/26 03:12:44;;;;;;;0.10;0.10;;;8.00;99.90;;;;;;5044493;28;20033;-73
2022/03/26 03:15:10;;;;;;;0.75;0.75;;;8.00;99.90;;;;;;5041686;28;20029;-73
2022/03/26 03:17:38;;;;;;;0.68;0.68;;;8.00;99.90;;;;;;5048381;28;20082;-74
2022/03/26 03:20:05;;;;;;;0.68;0.68;;;8.00;99.90;;;;;;5044481;28;20033;-73
2022/03/26 03:22:30;;;;;;;0.10;0.10;;;7.80;99.90;;;;;;5046551;28;20395;-73
2022/03/26 03:24:56;;;;;;;0.10;0.10;;;7.80;99.90;;;;;;5043541;28;20478;-73
2022/03/26 03:27:21;;;;;;;1.40;1.30;;;7.80;99.90;;;;;;5047743;28;20032;-73
2022/03/26 03:29:47;;;;;;;0.40;0.40;;;7.80;99.90;;;;;;5043697;28;20032;-73
2022/03/26 03:32:13;;;;;;;2.22;2.08;;;7.80;99.90;;;;;;5043376;28;20032;-74
2022/03/26 03:34:39;;;;;;;0.73;0.73;;;7.80;99.90;;;;;;5043150;28;20170;-74
2022/03/26 03:37:05;;;;;;;0.10;0.10;;;7.80;99.90;;;;;;5041998;28;20487;-74
2022/03/26 03:39:30;;;;;;;0.20;0.20;;;7.70;99.90;;;;;;5042513;28;20504;-74
2022/03/26 03:41:56;;;;;;;0.50;0.50;;;7.70;99.90;;;;;;5036884;28;20535;-74
2022/03/26 03:44:22;;;;;;;0.10;0.10;;;7.70;99.90;;;;;;5043650;28;20028;-75
2022/03/26 03:46:48;;;;;;;0.38;0.38;;;7.70;99.90;;;;;;5043537;28;20039;-75
2022/03/26 03:49:14;;;;;;;0.10;0.10;;;7.60;99.90;;;;;;5043750;28;20448;-74
2022/03/26 03:51:39;;;;;;;0.30;0.30;;;7.60;99.90;;;;;;5044836;28;20034;-74
2022/03/26 03:54:05;;;;;;;6.90;5.28;;;7.60;99.90;;;;;;5044255;28;20021;-74
2022/03/26 03:56:31;;;;;;;0.52;0.43;;;7.50;99.90;;;;;;5036715;28;20462;-74
2022/03/26 03:58:57;;;;;;;0.10;0.10;;;7.50;99.90;;;;;;5046579;28;20028;-74
2022/03/26 04:01:22;;;;;;;1.92;1.83;;;7.50;99.90;;;;;;5055520;28;20028;-73
2022/03/26 04:03:48;;;;;;;0.30;0.30;;;7.50;99.90;;;;;;5039731;28;20079;-73
2022/03/26 04:06:14;;;;;;;0.10;0.10;;;7.50;99.90;;;;;;5042253;28;20025;-73
2022/03/26 04:08:39;;;;;;;0.85;0.85;;;7.50;99.90;;;;;;5040821;28;20030;-73
2022/03/26 04:11:05;;;;;;;0.10;0.10;;;7.50;99.90;;;;;;5044098;28;20639;-73
2022/03/26 04:13:30;;;;;;;0.63;0.63;;;7.40;99.90;;;;;;5046976;28;20037;-74
2022/03/26 04:15:56;;;;;;;2.28;2.13;;;7.40;99.90;;;;;;5047326;28;20040;-73
2022/03/26 04:18:23;;;;;;;1.05;1.05;;;7.40;99.90;;;;;;5042108;28;20036;-73
2022/03/26 04:20:50;;;;;;;2.92;2.22;;;7.40;99.90;;;;;;5042410;28;20029;-73
2022/03/26 04:23:15;;;;;;;2.13;1.95;;;7.30;99.90;;;;;;5038934;28;20020;-73
2022/03/26 04:25:41;;;;;;;0.13;0.13;;;7.30;99.90;;;;;;5039957;28;20029;-73
2022/03/26 04:28:06;;;;;;;0.65;0.65;;;7.30;99.90;;;;;;5041482;28;20508;-73
2022/03/26 04:30:32;;;;;;;1.10;0.85;;;7.30;99.90;;;;;;5044439;28;20037;-74
2022/03/26 04:32:58;;;;;;;13.95;1.83;;;7.30;99.90;;;;;;5039621;28;20104;-74
2022/03/26 04:35:24;;;;;;;0.95;0.95;;;7.30;99.90;;;;;;5046285;28;20141;-76
2022/03/26 04:37:52;;;;;;;0.90;0.90;;;7.20;99.90;;;;;;5055801;22;20548;-72
2022/03/26 04:40:17;;;;;;;0.10;0.10;;;7.20;99.90;;;;;;5046122;28;20445;-71
2022/03/26 04:42:43;;;;;;;0.10;0.10;;;7.10;99.90;;;;;;5039472;28;20108;-71
2022/03/26 04:45:09;;;;;;;0.13;0.13;;;7.00;99.90;;;;;;5039817;28;20025;-71
2022/03/26 04:47:35;;;;;;;0.73;0.73;;;6.80;99.90;;;;;;5040029;28;20025;-72
2022/03/26 04:50:01;;;;;;;0.40;0.40;;;6.80;99.90;;;;;;5048298;28;20051;-72
2022/03/26 04:52:26;;;;;;;0.10;0.10;;;6.70;99.90;;;;;;5042335;28;20036;-70
2022/03/26 04:54:52;;;;;;;0.10;0.10;;;6.70;99.90;;;;;;5044787;28;20039;-69
2022/03/26 04:57:18;;;;;;;0.35;0.35;;;6.80;99.90;;;;;;5039647;28;20047;-70
2022/03/26 04:59:44;;;;;;;0.10;0.10;;;6.80;99.90;;;;;;5038206;28;20459;-71
2022/03/26 05:02:10;;;;;;;0.73;0.73;;;6.90;99.90;;;;;;5039805;28;20028;-69
2022/03/26 05:04:36;;;;;;;0.30;0.30;;;6.90;99.90;;;;;;5041145;28;20390;-72
2022/03/26 05:07:45;;;;;;;11.40;3.92;;;7.10;99.90;;;;;;5041240;28;20029;-70
2022/03/26 05:09:47;;;;;;;0.38;0.38;;;6.90;99.90;;;;;;5039414;28;20514;-71
2022/03/26 05:12:13;;;;;;;0.10;0.10;;;6.90;99.90;;;;;;5045295;28;20037;-71
2022/03/26 05:14:39;;;;;;;0.10;0.10;;;6.90;99.90;;;;;;5041439;28;20017;-71
2022/03/26 05:17:04;;;;;;;0.75;0.75;;;6.90;99.90;;;;;;5045040;28;20028;-71
2022/03/26 05:19:30;;;;;;;0.10;0.10;;;6.80;99.90;;;;;;5041321;28;20029;-70
2022/03/26 05:21:56;;;;;;;0.20;0.20;;;6.80;99.90;;;;;;5046424;28;20482;-72
2022/03/26 05:24:21;;;;;;;0.10;0.10;;;6.70;99.90;;;;;;5037391;28;20267;-72
2022/03/26 05:26:47;;;;;;;1.85;1.75;;;6.70;99.90;;;;;;5044520;28;20372;-71
2022/03/26 05:29:12;;;;;;;0.20;0.20;;;6.60;99.90;;;;;;5037687;28;20028;-71
2022/03/26 05:31:38;;;;;;;0.43;0.43;;;6.60;99.90;;;;;;5044239;28;20505;-71
2022/03/26 05:34:04;;;;;;;0.13;0.13;;;6.60;99.90;;;;;;5039811;28;20036;-71
2022/03/26 05:36:29;;;;;;;0.13;0.13;;;6.60;99.90;;;;;;5041351;28;20063;-71
2022/03/26 05:38:55;;;;;;;0.17;0.17;;;6.60;99.90;;;;;;5041169;28;20374;-71
2022/03/26 05:41:24;;;;;;;0.10;0.10;;;6.70;99.90;;;;;;5040134;28;20029;-71
2022/03/26 05:43:50;;;;;;;2.08;1.95;;;6.80;99.90;;;;;;5041622;28;20040;-70
2022/03/26 05:46:16;;;;;;;0.88;0.88;;;6.80;99.90;;;;;;5036693;28;21264;-70
2022/03/26 05:48:41;;;;;;;0.10;0.10;;;6.80;99.90;;;;;;5040518;28;20493;-70
2022/03/26 05:51:07;;;;;;;0.10;0.10;;;6.80;99.90;;;;;;5042499;28;20021;-70
2022/03/26 05:53:33;;;;;;;0.10;0.10;;;6.80;99.90;;;;;;5044615;28;20522;-72
2022/03/26 05:55:59;;;;;;;0.10;0.10;;;6.80;99.90;;;;;;5037518;28;20021;-70
2022/03/26 05:58:25;;;;;;;0.10;0.10;;;6.80;99.90;;;;;;5040042;28;20039;-70
2022/03/26 06:00:50;;;;;;;0.10;0.10;;;6.90;99.90;;;;;;5041393;28;20936;-71
2022/03/26 06:03:19;;;;;;;2.38;2.08;;;6.90;99.90;;;;;;5044379;28;20040;-70
2022/03/26 06:05:46;;;;;;;0.10;0.10;;;7.00;99.90;;;;;;5048561;28;20251;-70
2022/03/26 06:08:12;;;;;;;0.10;0.10;;;6.90;99.90;;;;;;5045195;28;20049;-71
2022/03/26 06:10:37;;;;;;;0.20;0.20;;;6.90;99.90;;;;;;5043595;28;20441;-70
2022/03/26 06:13:03;;;;;;;7.38;4.05;;;6.90;99.90;;;;;;5047124;28;20033;-71
2022/03/26 06:15:29;;;;;;;0.38;0.38;;;6.90;99.90;;;;;;5047710;28;20051;-71
2022/03/26 06:17:54;;;;;;;0.10;0.10;;;7.00;99.90;;;;;;5044510;28;20041;-70
2022/03/26 06:20:20;;;;;;;0.20;0.20;;;6.90;99.90;;;;;;5044801;28;20071;-71
2022/03/26 06:22:46;;;;;;;0.35;0.35;;;7.00;99.90;;;;;;5051354;28;20525;-70
2022/03/26 06:25:12;;;;;;;0.10;0.10;;;7.00;99.90;;;;;;5043502;28;20607;-72
2022/03/26 06:27:38;;;;;;;0.13;0.13;;;7.00;99.90;;;;;;5051763;28;20029;-72
2022/03/26 06:30:04;;;;;;;0.10;0.10;;;7.10;99.90;;;;;;5050896;28;20050;-72
2022/03/26 06:32:29;;;;;;;0.17;0.17;;;7.10;99.90;;;;;;5057352;28;20056;-72
2022/03/26 06:34:55;;;;;;;0.10;0.10;;;7.20;99.90;;;;;;5050646;28;20811;-71
2022/03/26 06:37:21;;;;;;;0.10;0.10;;;7.30;99.90;;;;;;5052945;28;20132;-72
2022/03/26 06:39:47;;;;;;;0.55;0.55;;;7.30;99.90;;;;;;5053289;28;20048;-71
2022/03/26 06:42:12;;;;;;;0.10;0.10;;;7.40;99.90;;;;;;5052267;28;20047;-72
2022/03/26 06:44:38;;;;;;;4.38;3.25;;;7.50;99.90;;;;;;5046703;28;20041;-71
2022/03/26 06:47:05;;;;;;;5.90;5.38;;;7.60;99.90;;;;;;5052242;28;20029;-70
2022/03/26 06:49:32;;;;;;;1.17;1.17;;;7.60;99.90;;;;;;5053128;28;20104;-71
2022/03/26 06:51:58;;;;;;;0.40;0.40;;;7.70;99.90;;;;;;5041018;28;20060;-71
2022/03/26 06:54:24;;;;;;;0.10;0.10;;;7.80;99.90;;;;;;5046654;28;20550;-70
2022/03/26 06:56:50;;;;;;;2.75;2.55;;;7.90;99.90;;;;;;5043536;28;20107;-71
2022/03/26 06:59:15;;;;;;;0.10;0.10;;;8.00;99.90;;;;;;5041362;28;20036;-72
2022/03/26 07:01:41;;;;;;;0.22;0.22;;;8.10;99.90;;;;;;5042424;28;20039;-71
2022/03/26 07:04:07;;;;;;;0.10;0.10;;;8.30;99.90;;;;;;5043528;28;20032;-70
2022/03/26 07:06:34;;;;;;;3.35;3.05;;;8.40;99.90;;;;;;5039815;28;20045;-71
2022/03/26 07:09:00;;;;;;;0.10;0.10;;;8.50;99.90;;;;;;5044369;28;20024;-71
2022/03/26 07:11:26;;;;;;;11.70;3.50;;;8.50;99.90;;;;;;5042872;28;20155;-72
2022/03/26 07:13:52;;;;;;;9.23;4.85;;;8.60;99.90;;;;;;5036577;28;20113;-72
2022/03/26 07:16:17;;;;;;;2.55;2.30;;;8.70;99.90;;;;;;5042513;28;20051;-70
2022/03/26 07:18:44;;;;;;;6.93;5.57;;;8.90;99.90;;;;;;5043280;28;20541;-72
2022/03/26 07:21:09;;;;;;;0.30;0.30;;;9.00;99.90;;;;;;5043187;28;20021;-72
2022/03/26 07:23:35;;;;;;;1.27;1.27;;;9.00;99.90;;;;;;5042941;28;20517;-71
2022/03/26 07:26:01;;;;;;;2.63;2.28;;;9.00;99.90;;;;;;5041728;28;20485;-71
2022/03/26 07:28:27;;;;;;;0.10;0.10;;;9.10;99.90;;;;;;5039354;28;20028;-71
2022/03/26 07:30:53;;;;;;;0.10;0.10;;;9.30;99.80;;;;;;5040977;28;20059;-69
2022/03/26 07:33:19;;;;;;;0.10;0.10;;;9.40;99.20;;;;;;5037502;28;20474;-71
2022/03/26 07:35:45;;;;;;;0.10;0.10;;;9.30;98.00;;;;;;5041557;28;20486;-71
2022/03/26 07:38:11;;;;;;;0.10;0.10;;;9.30;97.80;;;;;;5038908;28;20029;-75
2022/03/26 07:40:37;;;;;;;0.20;0.20;;;9.50;97.60;;;;;;5040177;28;20047;-70
2022/03/26 07:43:03;;;;;;;0.10;0.10;;;9.50;97.90;;;;;;5042027;28;20032;-70
2022/03/26 07:45:28;;;;;;;0.10;0.10;;;9.60;97.50;;;;;;5036877;28;20020;-71
2022/03/26 07:47:56;;;;;;;1.08;1.08;;;9.60;97.50;;;;;;5047407;28;20479;-72
2022/03/26 07:50:22;;;;;;;3.35;2.50;;;9.80;97.10;;;;;;5043682;28;20025;-71
2022/03/26 07:52:48;;;;;;;0.28;0.28;;;9.80;97.00;;;;;;5040031;28;20061;-71
2022/03/26 07:55:13;;;;;;;2.65;2.55;;;9.70;97.20;;;;;;5041248;28;20052;-70
2022/03/26 07:57:39;;;;;;;0.10;0.10;;;9.90;96.80;;;;;;5046331;28;20032;-72
2022/03/26 08:00:09;;;;;;;0.30;0.30;;;10.10;95.70;;;;;;5048236;28;20055;-71
2022/03/26 08:02:34;;;;;;;0.90;0.90;;;9.80;95.70;;;;;;5047772;28;20064;-71
2022/03/26 08:05:00;;;;;;;0.30;0.30;;;10.10;95.00;;;;;;5039810;28;20052;-71
2022/03/26 08:07:27;;;;;;;0.20;0.20;;;10.30;95.30;;;;;;5046078;28;20036;-71
2022/03/26 08:09:53;;;;;;;1.48;1.35;;;10.30;94.10;;;;;;5050247;28;20517;-73
2022/03/26 08:12:19;;;;;;;0.30;0.30;;;10.30;94.10;;;;;;5040763;28;20029;-72
2022/03/26 08:14:44;;;;;;;0.10;0.10;;;10.50;93.60;;;;;;5043929;28;20021;-73
2022/03/26 08:17:10;;;;;;;0.10;0.10;;;10.60;93.20;;;;;;5039366;28;20017;-71
2022/03/26 08:19:36;;;;;;;2.85;2.72;;;10.70;93.00;;;;;;5046012;28;20025;-71
2022/03/26 08:22:03;;;;;;;0.10;0.10;;;10.80;91.80;;;;;;5048339;28;20284;-72
2022/03/26 08:24:29;;;;;;;1.92;1.83;;;11.10;90.90;;;;;;5046331;28;20208;-74
2022/03/26 08:26:54;;;;;;;0.20;0.20;;;11.10;90.80;;;;;;5038893;28;20516;-73
2022/03/26 08:29:20;;;;;;;0.10;0.10;;;11.10;90.00;;;;;;5044286;28;20024;-71
2022/03/26 08:31:45;;;;;;;1.27;1.27;;;11.10;89.70;;;;;;5049690;28;20395;-70
2022/03/26 08:34:12;;;;;;;0.25;0.25;;;11.20;90.00;;;;;;5038164;28;20033;-72
2022/03/26 08:36:37;;;;;;;0.38;0.38;;;11.30;89.70;;;;;;5045221;28;20073;-71
2022/03/26 08:39:03;;;;;;;0.10;0.10;;;11.40;86.80;;;;;;5044395;28;20049;-72
2022/03/26 08:41:29;;;;;;;0.10;0.10;;;11.50;86.70;;;;;;5046641;28;20074;-71
2022/03/26 08:43:55;;;;;;;2.28;1.00;;;11.70;84.80;;;;;;5047539;28;20020;-72
2022/03/26 08:46:21;;;;;;;0.10;0.10;;;11.90;82.80;;;;;;5048657;28;20908;-71
2022/03/26 08:48:48;;;;;;;1.30;1.23;;;12.10;80.90;;;;;;5047769;28;20518;-73
2022/03/26 08:51:14;;;;;;;0.10;0.10;;;12.20;79.20;;;;;;5041880;28;20097;-71
2022/03/26 08:53:40;;;;;;;0.40;0.40;;;12.20;78.30;;;;;;5049042;28;20096;-74
2022/03/26 08:56:06;;;;;;;0.10;0.10;;;12.20;77.60;;;;;;5045133;28;20036;-72
2022/03/26 08:58:33;;;;;;;0.35;0.35;;;12.20;74.70;;;;;;5047208;28;20032;-72
2022/03/26 09:00:59;;;;;;;0.15;0.15;;;12.50;75.90;;;;;;5047272;28;20101;-72
2022/03/26 09:03:25;;;;;;;0.10;0.10;;;12.40;73.80;;;;;;5042785;28;20155;-68
2022/03/26 09:05:52;;;;;;;0.10;0.10;;;12.40;75.00;;;;;;5045440;28;20360;-72
2022/03/26 09:08:18;;;;;;;0.10;0.10;;;12.30;77.40;;;;;;5044068;28;20033;-67
2022/03/26 09:10:44;;;;;;;0.20;0.20;;;12.30;74.30;;;;;;5045506;28;20390;-68
2022/03/26 09:13:10;;;;;;;2.60;2.40;;;12.40;73.20;;;;;;5045095;28;20025;-66
2022/03/26 09:15:39;;;;;;;2.92;2.72;;;12.30;72.50;;;;;;5038635;28;20447;-67
2022/03/26 09:18:05;;;;;;;0.40;0.40;;;12.30;72.20;;;;;;5045027;28;20090;-73
2022/03/26 09:20:31;;;;;;;2.10;1.95;;;12.40;72.10;;;;;;5044924;28;20372;-72
2022/03/26 09:22:57;;;;;;;1.38;1.38;;;12.70;71.60;;;;;;5048917;28;20040;-71
2022/03/26 09:25:24;;;;;;;0.45;0.45;;;12.90;71.50;;;;;;5040943;28;20236;-74
2022/03/26 09:27:50;;;;;;;3.28;3.05;;;13.10;71.30;;;;;;5048185;28;20025;-72
2022/03/26 09:30:16;;;;;;;7.97;4.63;;;13.30;70.40;;;;;;5048206;28;20016;-72
2022/03/26 09:32:46;;;;;;;0.40;0.40;;;13.40;69.90;;;;;;5040957;28;20075;-73
2022/03/26 09:35:13;;;;;;;0.43;0.43;;;13.40;68.90;;;;;;5036743;28;20025;-72
2022/03/26 09:37:40;;;;;;;0.10;0.10;;;13.50;69.30;;;;;;5048783;28;20045;-72
2022/03/26 09:40:07;;;;;;;4.13;2.20;;;13.50;68.50;;;;;;5047870;28;20120;-72
2022/03/26 09:42:33;;;;;;;0.30;0.30;;;13.70;68.10;;;;;;5048132;28;20113;-72
2022/03/26 09:44:59;;;;;;;0.10;0.10;;;13.70;68.00;;;;;;5049039;28;20028;-72
2022/03/26 09:47:25;;;;;;;0.10;0.10;;;13.60;68.30;;;;;;5049706;28;20047;-73
2022/03/26 09:49:51;;;;;;;0.47;0.47;;;13.80;68.40;;;;;;5049428;28;20025;-72
2022/03/26 09:52:17;;;;;;;1.23;1.20;;;14.10;68.10;;;;;;5047830;28;20090;-72
2022/03/26 09:54:43;;;;;;;0.22;0.22;;;14.30;67.10;;;;;;5046079;28;20033;-72
2022/03/26 09:57:09;;;;;;;20.92;1.95;;;14.40;66.30;;;;;;5048990;28;20476;-73
2022/03/26 09:59:35;;;;;;;0.45;0.45;;;14.30;66.50;;;;;;5048806;28;20033;-73
2022/03/26 10:02:02;;;;;;;1.70;1.60;;;14.50;66.40;;;;;;5040032;28;20064;-73
2022/03/26 10:04:38;;;;;;;5.28;3.83;;;14.80;65.70;;;;;;5042231;28;20081;-74
2022/03/26 10:07:04;;;;;;;1.23;1.23;;;14.90;64.30;;;;;;5047442;28;20033;-73
2022/03/26 10:09:34;;;;;;;3.03;2.80;;;15.00;64.30;;;;;;5049615;28;20364;-75
2022/03/26 10:12:11;;;;;;;0.10;0.10;;;15.10;64.40;;;;;;5045608;28;20490;-73
2022/03/26 10:14:58;;;;;;;1.77;1.67;;;15.20;63.20;;;;;;5047623;28;20040;-73
2022/03/26 10:17:33;;;;;;;1.45;1.35;;;15.00;63.20;;;;;;5036654;28;20039;-74
2022/03/26 10:20:12;;;;;;;0.82;0.82;;;15.30;62.00;;;;;;5038879;28;20490;-74
2022/03/26 10:22:40;;;;;;;1.23;1.23;;;15.40;61.10;;;;;;5036372;28;20098;-74
2022/03/26 10:25:07;;;;;;;1.20;0.75;;;15.50;60.70;;;;;;5043916;28;20096;-74
2022/03/26 10:27:43;;;;;;;0.30;0.30;;;15.50;61.20;;;;;;5035772;28;20036;-73
2022/03/26 10:32:38;;;;;;;35.85;5.97;;;15.60;61.00;;;;;;5047181;28;20025;-73
2022/03/26 10:33:25;;;;;;;0.28;0.28;;;15.60;60.60;;;;;;5040775;28;20139;-73
2022/03/26 10:38:19;;;;;;;0.47;0.47;;;15.50;60.10;;;;;;5039532;28;20057;-67
2022/03/26 10:40:44;;;;;;;0.60;0.60;;;15.70;59.80;;;;;;5037013;28;20030;-67
2022/03/26 10:43:13;;;;;;;1.40;1.40;;;15.60;59.20;;;;;;5029304;28;20029;-68
2022/03/26 10:45:53;;;;;;;0.57;0.50;;;15.80;59.10;;;;;;5038568;28;20411;-68
2022/03/26 10:48:33;;;;;;;0.35;0.30;;;15.80;58.90;;;;;;5042055;28;20066;-69
2022/03/26 10:51:10;;;;;;;0.38;0.38;;;16.00;58.00;;;;;;5043161;28;20028;-67
2022/03/26 10:53:37;;;;;;;0.73;0.73;;;16.00;58.20;;;;;;5045914;28;20017;-68
2022/03/26 10:56:06;;;;;;;1.95;1.85;;;15.90;57.80;;;;;;5039159;28;20028;-68
2022/03/26 10:58:33;;;;;;;0.10;0.10;;;16.10;57.50;;;;;;5043750;28;20112;-67
2022/03/26 11:00:58;;;;;;;2.78;2.63;;;16.30;57.90;;;;;;5041183;28;20124;-67
2022/03/26 11:03:25;;;;;;;1.88;1.75;;;16.40;55.70;;;;;;5043468;28;20112;-67
2022/03/26 11:05:55;;;;;;;0.15;0.15;;;16.50;55.70;;;;;;5039032;28;20036;-69
2022/03/26 11:08:22;;;;;;;3.20;1.73;;;16.60;56.90;;;;;;5036936;28;20047;-68
2022/03/26 11:10:50;;;;;;;4.13;3.72;;;16.70;56.10;;;;;;5043651;28;20018;-68
2022/03/26 11:13:18;;;;;;;1.90;1.80;;;16.80;54.80;;;;;;5033848;28;20020;-68
2022/03/26 11:15:52;;;;;;;1.02;1.02;;;16.90;53.90;;;;;;5039041;28;20033;-67
2022/03/26 11:18:24;;;;;;;0.55;0.55;;;17.00;51.80;;;;;;5044745;28;20500;-68
2022/03/26 11:21:17;;;;;;;1.25;1.15;;;17.10;51.00;;;;;;5037506;28;20064;-68
2022/03/26 11:24:18;;;;;;;1.75;1.65;;;16.50;50.00;;;;;;5034762;28;20034;-68
2022/03/26 11:27:11;;;;;;;0.47;0.47;;;17.30;50.20;;;;;;5041551;28;20043;-69
2022/03/26 11:30:15;;;;;;;0.45;0.45;;;17.30;50.70;;;;;;5034458;28;20045;-67
2022/03/26 11:32:44;;;;;;;1.30;1.30;;;17.50;50.10;;;;;;5044733;28;20032;-68
2022/03/26 11:35:15;;;;;;;0.30;0.30;;;17.40;49.10;;;;;;5035822;28;20486;-69
2022/03/26 11:38:00;;;;;;;0.57;0.57;;;17.20;48.10;;;;;;5034016;28;20114;-68
2022/03/26 11:40:48;;;;;;;1.40;1.35;;;17.50;48.00;;;;;;5040256;28;20021;-67
2022/03/26 11:43:38;;;;;;;0.10;0.10;;;17.50;47.60;;;;;;5035487;28;20542;-68
2022/03/26 11:51:37;;;;;;;0.30;0.30;;;17.80;46.50;;;;;;5041145;28;20055;-69
2022/03/26 11:54:29;;;;;;;0.52;0.52;;;17.90;45.40;;;;;;5040537;28;20482;-68
2022/03/26 11:57:09;;;;;;;0.22;0.22;;;17.80;44.10;;;;;;5030865;28;20584;-67
2022/03/26 11:59:39;;;;;;;0.25;0.25;;;17.70;43.80;;;;;;5039004;28;20021;-67
2022/03/26 12:02:24;;;;;;;0.65;0.65;;;17.70;43.40;;;;;;5040960;28;20227;-67
2022/03/26 12:06:35;;;;;;;0.43;0.43;;;17.80;43.90;;;;;;5048538;28;20668;-68
2022/03/26 12:07:46;;;;;;;0.85;0.50;;;17.90;43.70;;;;;;5039644;28;20041;-68
2022/03/26 12:10:12;;;;;;;0.70;0.70;;;18.00;43.70;;;;;;5043180;28;20087;-69
2022/03/26 12:12:58;;;;;;;0.30;0.30;;;18.00;43.70;;;;;;5038467;28;20053;-68
2022/03/26 12:15:26;;;;;;;0.73;0.73;;;18.00;43.30;;;;;;5035199;28;20105;-69
2022/03/26 12:18:14;;;;;;;0.45;0.45;;;17.90;42.60;;;;;;5036619;28;20043;-69
2022/03/26 12:20:40;;;;;;;0.10;0.10;;;17.80;42.50;;;;;;5033351;28;20522;-68
2022/03/26 12:23:15;;;;;;;3.20;1.20;;;17.90;42.50;;;;;;5037166;28;20033;-69
2022/03/26 12:25:49;;;;;;;1.70;1.60;;;18.00;42.20;;;;;;5038667;28;20031;-70
2022/03/26 12:28:30;;;;;;;2.15;2.05;;;18.00;42.60;;;;;;5037107;28;20033;-70
2022/03/26 12:30:58;;;;;;;0.20;0.20;;;17.90;42.00;;;;;;5033960;28;20057;-70
2022/03/26 12:33:25;;;;;;;0.10;0.10;;;18.00;42.20;;;;;;5037776;28;20495;-69
2022/03/26 12:35:54;;;;;;;1.13;1.13;;;18.00;41.30;;;;;;5035701;28;20503;-70
2022/03/26 12:38:20;;;;;;;0.10;0.10;;;18.10;40.00;;;;;;5036573;28;20040;-70
2022/03/26 12:40:55;;;;;;;0.20;0.20;;;18.10;40.10;;;;;;5037596;28;20032;-70
2022/03/26 12:43:23;;;;;;;0.10;0.10;;;18.10;40.70;;;;;;5036110;28;20098;-70
2022/03/26 12:45:49;;;;;;;0.30;0.30;;;18.00;42.40;;;;;;5035087;28;20025;-70
2022/03/26 12:48:16;;;;;;;0.10;0.10;;;18.00;43.60;;;;;;5033978;28;20165;-69
2022/03/26 12:50:44;;;;;;;0.45;0.45;;;18.00;41.20;;;;;;5037451;28;20029;-70
2022/03/26 12:53:15;;;;;;;1.20;1.15;;;18.30;42.20;;;;;;5037002;28;20029;-69
2022/03/26 12:55:41;;;;;;;0.68;0.68;;;18.70;42.00;;;;;;5034452;28;20103;-70
2022/03/26 13:01:08;;;;;;;2.40;2.30;;;19.40;40.80;;;;;;5035252;28;20036;-69
2022/03/26 13:03:35;;;;;;;1.77;0.85;;;19.90;40.50;;;;;;5035854;28;20040;-70
2022/03/26 13:06:12;;;;;;;2.35;2.00;;;20.30;38.70;;;;;;5034551;28;20032;-72
2022/03/26 13:08:55;;;;;;;0.10;0.10;;;20.80;36.50;;;;;;5031231;28;20114;-70